Time;durP1;ratioP1;P1;durP2;ratioP2;P2;SDS_P1;SDS_P2;PMS_P1;PMS_P2;Temp;Humidity;BMP_temperature;BMP_pressure;BME280_temperature;BME280_humidity;BME280_pressure;Samples;Min_cycle;Max_cycle;Signal;HPM_P1;HPM_P2
2021/01/17 00:01:04;;;;;;;;;;;;;;;;;;2114808;28;45931;-63
2021/01/17 00:02:05;;;;;;;;;;;;;;;;;;2115168;27;43868;-63
2021/01/17 00:03:06;;;;;;;;;;;;;;;;;;2115083;28;42979;-63
2021/01/17 00:04:07;;;;;;;;;;;;;;;;;;2114507;28;44248;-63
2021/01/17 00:05:12;;;;;;;;;;;;;;;;;;2114514;28;44310;-63
2021/01/17 00:06:14;;;;;;;;;;;;;;;;;;2114466;28;45226;-63
2021/01/17 00:07:15;;;;;;;;;;;;;;;;;;2114248;28;44222;-63
2021/01/17 00:08:17;;;;;;;;;;;;;;;;;;2114408;28;43571;-63
2021/01/17 00:09:18;;;;;;;;;;;;;;;;;;2114104;28;42972;-63
2021/01/17 00:10:20;;;;;;;;;;;;;;;;;;2114487;28;43302;-63
2021/01/17 00:11:21;;;;;;;;;;;;;;;;;;2114465;28;44036;-63
2021/01/17 00:12:22;;;;;;;;;;;;;;;;;;2114626;28;42870;-63
2021/01/17 00:13:24;;;;;;;;;;;;;;;;;;2114890;28;43230;-63
2021/01/17 00:14:25;;;;;;;;;;;;;;;;;;2114425;28;43262;-63
2021/01/17 00:15:26;;;;;;;;;;;;;;;;;;2114546;28;43247;-63
2021/01/17 00:16:27;;;;;;;;;;;;;;;;;;2114275;28;44119;-63
2021/01/17 00:17:28;;;;;;;;;;;;;;;;;;2114315;28;43282;-63
2021/01/17 00:18:30;;;;;;;;;;;;;;;;;;2114431;28;41720;-63
2021/01/17 00:19:41;;;;;;;;;;;;;;;;;;2114592;27;42048;-63
2021/01/17 00:20:42;;;;;;;;;;;;;;;;;;2115014;27;44335;-67
2021/01/17 00:21:44;;;;;;;;;;;;;;;;;;2115011;28;46974;-63
2021/01/17 00:22:45;;;;;;;;;;;;;;;;;;2115048;28;45679;-63
2021/01/17 00:23:46;;;;;;;;;;;;;;;;;;2114757;28;45359;-63
2021/01/17 00:24:48;;;;;;;;;;;;;;;;;;2115299;27;43749;-63
2021/01/17 00:25:49;;;;;;;;;;;;;;;;;;2114395;28;45728;-62
2021/01/17 00:26:50;;;;;;;;;;;;;;;;;;2114953;28;45490;-63
2021/01/17 00:27:52;;;;;;;;;;;;;;;;;;2114946;28;44362;-63
2021/01/17 00:28:53;;;;;;;;;;;;;;;;;;2115145;28;42878;-63
2021/01/17 00:29:54;;;;;;;;;;;;;;;;;;2114993;28;46763;-63
2021/01/17 00:30:54;;;;;;;;;;;;;;;;;;2114556;28;44365;-63
2021/01/17 00:31:56;;;;;;;;;;;;;;;;;;2114621;28;45594;-63
2021/01/17 00:32:57;;;;;;;;;;;;;;;;;;2115022;27;44248;-62
2021/01/17 00:33:58;;;;;;;;;;;;;;;;;;2115054;28;45708;-63
2021/01/17 00:34:59;;;;;;;;;;;;;;;;;;2114627;28;42774;-64
2021/01/17 00:36:00;;;;;;;;;;;;;;;;;;2112064;28;44360;-64
2021/01/17 00:37:02;;;;;;;;;;;;;;;;;;2106815;28;45717;-63
2021/01/17 00:38:03;;;;;;;;;;;;;;;;;;2106075;28;44068;-63
2021/01/17 00:39:06;;;;;;;;;;;;;;;;;;2105792;28;43972;-63
2021/01/17 00:40:07;;;;;;;;;;;;;;;;;;2106770;28;43221;-63
2021/01/17 00:41:08;;;;;;;;;;;;;;;;;;2105938;28;47649;-63
2021/01/17 00:42:10;;;;;;;;;;;;;;;;;;2105958;28;45616;-63
2021/01/17 00:43:11;;;;;;;;;;;;;;;;;;2106050;28;44356;-63
2021/01/17 00:44:13;;;;;;;;;;;;;;;;;;2106852;28;44341;-63
2021/01/17 00:45:14;;;;;;;;;;;;;;;;;;2106498;28;45258;-63
2021/01/17 00:46:15;;;;;;;;;;;;;;;;;;2105741;28;44713;-63
2021/01/17 00:47:17;;;;;;;;;;;;;;;;;;2106340;28;44136;-64
2021/01/17 00:48:18;;;;;;;;;;;;;;;;;;2106508;28;44050;-64
2021/01/17 00:49:19;;;;;;;;;;;;;;;;;;2105321;28;43585;-64
2021/01/17 00:50:21;;;;;;;;;;;;;;;;;;2105882;28;46361;-65
2021/01/17 00:51:22;;;;;;;;;;;;;;;;;;2105825;28;43261;-65
2021/01/17 00:52:23;;;;;;;;;;;;;;;;;;2105957;28;44837;-65
2021/01/17 00:53:24;;;;;;;;;;;;;;;;;;2105666;28;46259;-65
2021/01/17 00:54:25;;;;;;;;;;;;;;;;;;2105928;28;45790;-65
2021/01/17 00:55:27;;;;;;;;;;;;;;;;;;2105704;28;44964;-65
2021/01/17 00:56:28;;;;;;;;;;;;;;;;;;2106167;28;44772;-65
2021/01/17 00:57:29;;;;;;;;;;;;;;;;;;2106223;28;42183;-65
2021/01/17 00:58:30;;;;;;;;;;;;;;;;;;2105782;28;46022;-65
2021/01/17 00:59:31;;;;;;;;;;;;;;;;;;2105438;28;46012;-65
2021/01/17 01:00:32;;;;;;;;;;;;;;;;;;2106422;28;44816;-65
2021/01/17 01:01:40;;;;;;;;;;;;;;;;;;2106396;28;45977;-65
2021/01/17 01:02:42;;;;;;;;;;;;;;;;;;2106393;28;45568;-64
2021/01/17 01:03:43;;;;;;;;;;;;;;;;;;2106248;28;44273;-65
2021/01/17 01:04:45;;;;;;;;;;;;;;;;;;2106454;28;46497;-64
2021/01/17 01:05:46;;;;;;;;;;;;;;;;;;2105681;28;44537;-64
2021/01/17 01:06:50;;;;;;;;;;;;;;;;;;2098089;28;45418;-64
2021/01/17 01:07:51;;;;;;;;;;;;;;;;;;2105641;28;44469;-62
2021/01/17 01:08:52;;;;;;;;;;;;;;;;;;2106246;28;45130;-64
2021/01/17 01:09:53;;;;;;;;;;;;;;;;;;2106076;28;42421;-62
2021/01/17 01:10:54;;;;;;;;;;;;;;;;;;2106418;28;42600;-63
2021/01/17 01:11:55;;;;;;;;;;;;;;;;;;2106197;28;42985;-63
2021/01/17 01:12:56;;;;;;;;;;;;;;;;;;2106390;28;44437;-63
2021/01/17 01:13:57;;;;;;;;;;;;;;;;;;2105276;28;43164;-63
2021/01/17 01:14:58;;;;;;;;;;;;;;;;;;2105764;28;43148;-64
2021/01/17 01:15:59;;;;;;;;;;;;;;;;;;2106051;28;42980;-65
2021/01/17 01:17:01;;;;;;;;;;;;;;;;;;2113373;27;42007;-63
2021/01/17 01:18:02;;;;;;;;;;;;;;;;;;2114744;28;44152;-64
2021/01/17 01:19:03;;;;;;;;;;;;;;;;;;2114371;28;45408;-64
2021/01/17 01:20:05;;;;;;;;;;;;;;;;;;2114603;28;44579;-63
2021/01/17 01:21:06;;;;;;;;;;;;;;;;;;2114658;28;44517;-64
2021/01/17 01:22:07;;;;;;;;;;;;;;;;;;2114112;28;42518;-63
2021/01/17 01:23:08;;;;;;;;;;;;;;;;;;2114137;28;43253;-63
2021/01/17 01:24:09;;;;;;;;;;;;;;;;;;2114672;27;44209;-63
2021/01/17 01:25:11;;;;;;;;;;;;;;;;;;2114734;28;42979;-65
2021/01/17 01:26:12;;;;;;;;;;;;;;;;;;2113607;28;44289;-65
2021/01/17 01:27:13;;;;;;;;;;;;;;;;;;2114750;27;43246;-64
2021/01/17 01:28:14;;;;;;;;;;;;;;;;;;2114490;28;43224;-64
2021/01/17 01:29:15;;;;;;;;;;;;;;;;;;2113564;28;43899;-64
2021/01/17 01:30:16;;;;;;;;;;;;;;;;;;2113639;27;44497;-63
2021/01/17 01:31:21;;;;;;;;;;;;;;;;;;2114032;28;43915;-63
2021/01/17 01:32:22;;;;;;;;;;;;;;;;;;2114071;28;45702;-63
2021/01/17 01:33:23;;;;;;;;;;;;;;;;;;2105759;28;43382;-64
2021/01/17 01:34:24;;;;;;;;;;;;;;;;;;2114183;28;43057;-64
2021/01/17 01:35:27;;;;;;;;;;;;;;;;;;2114622;27;44267;-64
2021/01/17 01:36:29;;;;;;;;;;;;;;;;;;2114751;28;45730;-64
2021/01/17 01:37:30;;;;;;;;;;;;;;;;;;2113742;28;45211;-64
2021/01/17 01:38:31;;;;;;;;;;;;;;;;;;2114205;28;45622;-64
2021/01/17 01:39:32;;;;;;;;;;;;;;;;;;2113274;28;45736;-64
2021/01/17 01:40:33;;;;;;;;;;;;;;;;;;2114846;27;44235;-63
2021/01/17 01:41:35;;;;;;;;;;;;;;;;;;2114236;28;44239;-64
2021/01/17 01:42:40;;;;;;;;;;;;;;;;;;2114114;28;45457;-63
2021/01/17 01:43:41;;;;;;;;;;;;;;;;;;2113775;28;44128;-63
2021/01/17 01:44:43;;;;;;;;;;;;;;;;;;2114701;27;45719;-64
2021/01/17 01:45:43;;;;;;;;;;;;;;;;;;2113813;28;45291;-63
2021/01/17 01:46:45;;;;;;;;;;;;;;;;;;2114244;28;44167;-63
2021/01/17 01:47:46;;;;;;;;;;;;;;;;;;2114464;27;45218;-63
2021/01/17 01:48:48;;;;;;;;;;;;;;;;;;2114409;28;44153;-63
2021/01/17 01:49:49;;;;;;;;;;;;;;;;;;2113611;28;45470;-63
2021/01/17 01:50:50;;;;;;;;;;;;;;;;;;2114653;27;45860;-64
2021/01/17 01:51:51;;;;;;;;;;;;;;;;;;2114585;27;44861;-63
2021/01/17 01:52:53;;;;;;;;;;;;;;;;;;2114160;28;45976;-63
2021/01/17 01:53:55;;;;;;;;;;;;;;;;;;2113830;28;44682;-63
2021/01/17 01:54:56;;;;;;;;;;;;;;;;;;2114710;27;44855;-61
2021/01/17 01:55:57;;;;;;;;;;;;;;;;;;2114373;27;44824;-61
2021/01/17 01:56:59;;;;;;;;;;;;;;;;;;2114777;27;44740;-61
2021/01/17 01:58:03;;;;;;;;;;;;;;;;;;2114074;27;44403;-62
2021/01/17 01:59:04;;;;;;;;;;;;;;;;;;2115268;28;44698;-61
2021/01/17 02:00:06;;;;;;;;;;;;;;;;;;2115644;28;43418;-61
2021/01/17 02:01:07;;;;;;;;;;;;;;;;;;2116343;28;45989;-61
2021/01/17 02:02:09;;;;;;;;;;;;;;;;;;2116241;27;44558;-61
2021/01/17 02:03:10;;;;;;;;;;;;;;;;;;2115504;28;44721;-62
2021/01/17 02:04:11;;;;;;;;;;;;;;;;;;2115199;28;46175;-63
2021/01/17 02:05:12;;;;;;;;;;;;;;;;;;2114929;27;45996;-63
2021/01/17 02:06:17;;;;;;;;;;;;;;;;;;2115696;28;44623;-64
2021/01/17 02:07:47;;;;;;;;;;;;;;;;;;2115997;27;45669;-64
2021/01/17 02:09:01;;;;;;;;;;;;;;;;;;2115788;27;46429;-64
2021/01/17 02:10:02;;;;;;;;;;;;;;;;;;2115558;27;44273;-64
2021/01/17 02:11:07;;;;;;;;;;;;;;;;;;2115967;27;45283;-63
2021/01/17 02:12:26;;;;;;;;;;;;;;;;;;2116156;27;45868;-63
2021/01/17 02:13:32;;;;;;;;;;;;;;;;;;2116408;27;44345;-63
2021/01/17 02:14:36;;;;;;;;;;;;;;;;;;2116045;28;43265;-63
2021/01/17 02:15:38;;;;;;;;;;;;;;;;;;2115410;28;43461;-64
2021/01/17 02:16:40;;;;;;;;;;;;;;;;;;2107183;28;42756;-64
2021/01/17 02:17:42;;;;;;;;;;;;;;;;;;2115578;28;44272;-63
2021/01/17 02:18:46;;;;;;;;;;;;;;;;;;2115848;27;42249;-64
2021/01/17 02:19:47;;;;;;;;;;;;;;;;;;2114977;28;42989;-64
2021/01/17 02:20:50;;;;;;;;;;;;;;;;;;2114983;28;43223;-64
2021/01/17 02:21:53;;;;;;;;;;;;;;;;;;2115093;28;44678;-64
2021/01/17 02:23:01;;;;;;;;;;;;;;;;;;2115280;28;43028;-64
2021/01/17 02:24:06;;;;;;;;;;;;;;;;;;2115975;27;41510;-64
2021/01/17 02:25:08;;;;;;;;;;;;;;;;;;2116433;28;43245;-65
2021/01/17 02:26:09;;;;;;;;;;;;;;;;;;2115736;28;44307;-64
2021/01/17 02:27:10;;;;;;;;;;;;;;;;;;2115487;28;44573;-64
2021/01/17 02:28:14;;;;;;;;;;;;;;;;;;2116494;27;44362;-64
2021/01/17 02:29:16;;;;;;;;;;;;;;;;;;2115590;28;43148;-64
2021/01/17 02:30:18;;;;;;;;;;;;;;;;;;2114548;28;42958;-65
2021/01/17 02:31:19;;;;;;;;;;;;;;;;;;2107901;28;42419;-64
2021/01/17 02:32:21;;;;;;;;;;;;;;;;;;2107869;28;45574;-64
2021/01/17 02:33:24;;;;;;;;;;;;;;;;;;2107541;28;42031;-64
2021/01/17 02:34:25;;;;;;;;;;;;;;;;;;2107663;28;44569;-64
2021/01/17 02:35:28;;;;;;;;;;;;;;;;;;2107191;28;44267;-64
2021/01/17 02:36:32;;;;;;;;;;;;;;;;;;2107110;28;43019;-64
2021/01/17 02:37:42;;;;;;;;;;;;;;;;;;2106955;28;45742;-64
2021/01/17 02:38:54;;;;;;;;;;;;;;;;;;2107759;28;44103;-64
2021/01/17 02:40:01;;;;;;;;;;;;;;;;;;2106902;28;46347;-64
2021/01/17 02:41:24;;;;;;;;;;;;;;;;;;2107088;28;44090;-64
2021/01/17 02:42:25;;;;;;;;;;;;;;;;;;2106826;28;45647;-64
2021/01/17 02:43:27;;;;;;;;;;;;;;;;;;2106864;28;44423;-64
2021/01/17 02:44:29;;;;;;;;;;;;;;;;;;2106813;28;45588;-64
2021/01/17 02:45:30;;;;;;;;;;;;;;;;;;2107287;28;44252;-64
2021/01/17 02:46:31;;;;;;;;;;;;;;;;;;2107263;28;44101;-64
2021/01/17 02:47:33;;;;;;;;;;;;;;;;;;2107293;28;45692;-64
2021/01/17 02:48:34;;;;;;;;;;;;;;;;;;2107397;28;44426;-65
2021/01/17 02:49:35;;;;;;;;;;;;;;;;;;2106305;28;45691;-64
2021/01/17 02:50:36;;;;;;;;;;;;;;;;;;2106611;28;45440;-64
2021/01/17 02:51:37;;;;;;;;;;;;;;;;;;2107430;28;43516;-64
2021/01/17 02:52:40;;;;;;;;;;;;;;;;;;2106896;28;44302;-64
2021/01/17 02:53:44;;;;;;;;;;;;;;;;;;2106881;28;44079;-64
2021/01/17 02:54:47;;;;;;;;;;;;;;;;;;2107474;28;43123;-64
2021/01/17 02:55:50;;;;;;;;;;;;;;;;;;2107237;28;44254;-64
2021/01/17 02:56:56;;;;;;;;;;;;;;;;;;2106466;28;44414;-63
2021/01/17 02:57:58;;;;;;;;;;;;;;;;;;2106917;28;45681;-63
2021/01/17 02:59:00;;;;;;;;;;;;;;;;;;2106366;28;44457;-64
2021/01/17 03:00:07;;;;;;;;;;;;;;;;;;2106746;28;44748;-63
2021/01/17 03:01:11;;;;;;;;;;;;;;;;;;2107460;28;44271;-63
2021/01/17 03:02:13;;;;;;;;;;;;;;;;;;2106490;28;45979;-63
2021/01/17 03:03:18;;;;;;;;;;;;;;;;;;2106584;28;43723;-63
2021/01/17 03:04:20;;;;;;;;;;;;;;;;;;2107050;28;44842;-63
2021/01/17 03:05:21;;;;;;;;;;;;;;;;;;2107253;28;44571;-63
2021/01/17 03:06:25;;;;;;;;;;;;;;;;;;2106447;28;44724;-63
2021/01/17 03:07:30;;;;;;;;;;;;;;;;;;2106488;28;44734;-63
2021/01/17 03:08:31;;;;;;;;;;;;;;;;;;2107013;28;44218;-63
2021/01/17 03:09:33;;;;;;;;;;;;;;;;;;2106123;28;44407;-63
2021/01/17 03:10:34;;;;;;;;;;;;;;;;;;2107120;28;44683;-63
2021/01/17 03:11:35;;;;;;;;;;;;;;;;;;2107015;28;44747;-63
2021/01/17 03:12:36;;;;;;;;;;;;;;;;;;2106392;28;45645;-63
2021/01/17 03:13:39;;;;;;;;;;;;;;;;;;2106670;28;46126;-63
2021/01/17 03:14:40;;;;;;;;;;;;;;;;;;2106264;28;46037;-63
2021/01/17 03:15:41;;;;;;;;;;;;;;;;;;2106502;28;44664;-63
2021/01/17 03:16:43;;;;;;;;;;;;;;;;;;2107120;28;45425;-63
2021/01/17 03:17:44;;;;;;;;;;;;;;;;;;2106358;28;45554;-63
2021/01/17 03:18:45;;;;;;;;;;;;;;;;;;2106393;28;45924;-63
2021/01/17 03:19:46;;;;;;;;;;;;;;;;;;2105877;28;45539;-63
2021/01/17 03:20:47;;;;;;;;;;;;;;;;;;2107248;28;44106;-64
2021/01/17 03:21:48;;;;;;;;;;;;;;;;;;2106955;28;44100;-64
2021/01/17 03:22:49;;;;;;;;;;;;;;;;;;2107110;28;43293;-64
2021/01/17 03:23:50;;;;;;;;;;;;;;;;;;2106701;28;44243;-64
2021/01/17 03:24:51;;;;;;;;;;;;;;;;;;2106913;28;44766;-63
2021/01/17 03:25:52;;;;;;;;;;;;;;;;;;2107007;28;44428;-63
2021/01/17 03:26:53;;;;;;;;;;;;;;;;;;2106585;28;42930;-63
2021/01/17 03:27:54;;;;;;;;;;;;;;;;;;2097654;28;42303;-63
2021/01/17 03:28:55;;;;;;;;;;;;;;;;;;2106649;28;43285;-63
2021/01/17 03:29:56;;;;;;;;;;;;;;;;;;2106283;28;44439;-64
2021/01/17 03:30:57;;;;;;;;;;;;;;;;;;2106998;28;43479;-63
2021/01/17 03:31:58;;;;;;;;;;;;;;;;;;2106784;28;44311;-63
2021/01/17 03:32:59;;;;;;;;;;;;;;;;;;2106395;28;42967;-63
2021/01/17 03:34:00;;;;;;;;;;;;;;;;;;2106002;28;42278;-63
2021/01/17 03:35:01;;;;;;;;;;;;;;;;;;2106497;28;42486;-63
2021/01/17 03:36:03;;;;;;;;;;;;;;;;;;2106668;28;41698;-63
2021/01/17 03:37:05;;;;;;;;;;;;;;;;;;2107079;28;41347;-63
2021/01/17 03:38:06;;;;;;;;;;;;;;;;;;2106294;28;44143;-63
2021/01/17 03:39:07;;;;;;;;;;;;;;;;;;2106262;28;41721;-63
2021/01/17 03:40:08;;;;;;;;;;;;;;;;;;2106900;28;42307;-63
2021/01/17 03:41:12;;;;;;;;;;;;;;;;;;2107096;28;43889;-63
2021/01/17 03:42:13;;;;;;;;;;;;;;;;;;2107114;28;43233;-63
2021/01/17 03:43:14;;;;;;;;;;;;;;;;;;2106926;28;45527;-63
2021/01/17 03:44:15;;;;;;;;;;;;;;;;;;2105953;28;45430;-63
2021/01/17 03:45:16;;;;;;;;;;;;;;;;;;2106267;28;44362;-63
2021/01/17 03:46:18;;;;;;;;;;;;;;;;;;2106776;28;46633;-63
2021/01/17 03:47:19;;;;;;;;;;;;;;;;;;2106997;28;44077;-63
2021/01/17 03:48:20;;;;;;;;;;;;;;;;;;2106775;28;45515;-63
2021/01/17 03:49:21;;;;;;;;;;;;;;;;;;2106236;28;44418;-64
2021/01/17 03:50:22;;;;;;;;;;;;;;;;;;2105818;28;44119;-63
2021/01/17 03:51:23;;;;;;;;;;;;;;;;;;2105932;28;45480;-64
2021/01/17 03:52:24;;;;;;;;;;;;;;;;;;2105811;28;46953;-63
2021/01/17 03:53:25;;;;;;;;;;;;;;;;;;2106846;28;44127;-63
2021/01/17 03:54:26;;;;;;;;;;;;;;;;;;2106554;28;45372;-64
2021/01/17 03:55:27;;;;;;;;;;;;;;;;;;2106969;28;45628;-64
2021/01/17 03:56:28;;;;;;;;;;;;;;;;;;2106807;28;45664;-64
2021/01/17 03:57:29;;;;;;;;;;;;;;;;;;2106332;28;44136;-64
2021/01/17 03:58:30;;;;;;;;;;;;;;;;;;2106323;28;44142;-64
2021/01/17 03:59:31;;;;;;;;;;;;;;;;;;2106440;28;42816;-64
2021/01/17 04:00:32;;;;;;;;;;;;;;;;;;2107100;28;44009;-64
2021/01/17 04:01:33;;;;;;;;;;;;;;;;;;2106800;28;45469;-64
2021/01/17 04:02:34;;;;;;;;;;;;;;;;;;2106430;28;44538;-64
2021/01/17 04:03:35;;;;;;;;;;;;;;;;;;2106681;28;45270;-64
2021/01/17 04:04:36;;;;;;;;;;;;;;;;;;2098020;28;44542;-64
2021/01/17 04:05:37;;;;;;;;;;;;;;;;;;2106279;28;44701;-64
2021/01/17 04:06:38;;;;;;;;;;;;;;;;;;2106288;28;44137;-64
2021/01/17 04:07:39;;;;;;;;;;;;;;;;;;2097773;28;43556;-64
2021/01/17 04:08:40;;;;;;;;;;;;;;;;;;2107349;28;43146;-64
2021/01/17 04:09:42;;;;;;;;;;;;;;;;;;2106500;28;44425;-64
2021/01/17 04:10:43;;;;;;;;;;;;;;;;;;2106577;28;44204;-63
2021/01/17 04:11:47;;;;;;;;;;;;;;;;;;2106666;28;45577;-64
2021/01/17 04:12:48;;;;;;;;;;;;;;;;;;2107062;28;46113;-64
2021/01/17 04:13:49;;;;;;;;;;;;;;;;;;2106649;28;44724;-64
2021/01/17 04:14:50;;;;;;;;;;;;;;;;;;2106980;28;46031;-64
2021/01/17 04:15:51;;;;;;;;;;;;;;;;;;2106584;28;44573;-63
2021/01/17 04:16:52;;;;;;;;;;;;;;;;;;2106894;28;43261;-63
2021/01/17 04:17:54;;;;;;;;;;;;;;;;;;2106672;28;47214;-63
2021/01/17 04:18:55;;;;;;;;;;;;;;;;;;2106236;28;46121;-63
2021/01/17 04:19:56;;;;;;;;;;;;;;;;;;2105534;28;43019;-63
2021/01/17 04:20:57;;;;;;;;;;;;;;;;;;2105669;28;44742;-63
2021/01/17 04:21:58;;;;;;;;;;;;;;;;;;2105890;28;45873;-63
2021/01/17 04:23:02;;;;;;;;;;;;;;;;;;2106696;28;45984;-63
2021/01/17 04:24:03;;;;;;;;;;;;;;;;;;2106482;28;44656;-63
2021/01/17 04:25:05;;;;;;;;;;;;;;;;;;2106126;28;44513;-64
2021/01/17 04:26:06;;;;;;;;;;;;;;;;;;2106068;28;45901;-64
2021/01/17 04:27:07;;;;;;;;;;;;;;;;;;2106777;28;44264;-64
2021/01/17 04:28:09;;;;;;;;;;;;;;;;;;2105848;28;43304;-64
2021/01/17 04:29:10;;;;;;;;;;;;;;;;;;2105965;28;44120;-64
2021/01/17 04:30:11;;;;;;;;;;;;;;;;;;2106222;28;44550;-64
2021/01/17 04:31:12;;;;;;;;;;;;;;;;;;2106004;28;42874;-64
2021/01/17 04:32:13;;;;;;;;;;;;;;;;;;2105823;28;43482;-64
2021/01/17 04:33:18;;;;;;;;;;;;;;;;;;2106792;28;44514;-64
2021/01/17 04:34:22;;;;;;;;;;;;;;;;;;2106454;28;46642;-64
2021/01/17 04:35:23;;;;;;;;;;;;;;;;;;2106963;28;43261;-64
2021/01/17 04:36:24;;;;;;;;;;;;;;;;;;2106142;28;44110;-65
2021/01/17 04:37:25;;;;;;;;;;;;;;;;;;2106221;28;43070;-65
2021/01/17 04:38:29;;;;;;;;;;;;;;;;;;2106749;28;42872;-63
2021/01/17 04:39:30;;;;;;;;;;;;;;;;;;2105957;28;44450;-64
2021/01/17 04:40:31;;;;;;;;;;;;;;;;;;2106162;28;44248;-63
2021/01/17 04:41:36;;;;;;;;;;;;;;;;;;2106406;28;44307;-64
2021/01/17 04:42:40;;;;;;;;;;;;;;;;;;2106889;28;43236;-64
2021/01/17 04:43:56;;;;;;;;;;;;;;;;;;2106439;28;43102;-64
2021/01/17 04:45:03;;;;;;;;;;;;;;;;;;2106461;28;44707;-63
2021/01/17 04:46:04;;;;;;;;;;;;;;;;;;2106626;28;41528;-64
2021/01/17 04:47:05;;;;;;;;;;;;;;;;;;2105896;28;43907;-63
2021/01/17 04:48:07;;;;;;;;;;;;;;;;;;2106853;28;41449;-63
2021/01/17 04:49:09;;;;;;;;;;;;;;;;;;2105824;28;45688;-65
2021/01/17 04:50:10;;;;;;;;;;;;;;;;;;2106608;28;44268;-63
2021/01/17 04:51:13;;;;;;;;;;;;;;;;;;2106444;28;43843;-63
2021/01/17 04:52:18;;;;;;;;;;;;;;;;;;2106603;28;45580;-63
2021/01/17 04:53:20;;;;;;;;;;;;;;;;;;2105911;28;43420;-63
2021/01/17 04:54:21;;;;;;;;;;;;;;;;;;2106001;28;46451;-63
2021/01/17 04:55:23;;;;;;;;;;;;;;;;;;2106286;28;45585;-63
2021/01/17 04:56:28;;;;;;;;;;;;;;;;;;2106107;28;45525;-63
2021/01/17 04:57:32;;;;;;;;;;;;;;;;;;2105805;28;44838;-63
2021/01/17 04:58:34;;;;;;;;;;;;;;;;;;2105928;28;44227;-63
2021/01/17 04:59:44;;;;;;;;;;;;;;;;;;2105771;28;44265;-63
2021/01/17 05:00:54;;;;;;;;;;;;;;;;;;2106561;28;44249;-63
2021/01/17 05:02:04;;;;;;;;;;;;;;;;;;2106286;28;44274;-63
2021/01/17 05:03:23;;;;;;;;;;;;;;;;;;2106195;28;42848;-63
2021/01/17 05:04:36;;;;;;;;;;;;;;;;;;2106128;28;42727;-63
2021/01/17 05:05:46;;;;;;;;;;;;;;;;;;2105992;28;44274;-64
2021/01/17 05:06:47;;;;;;;;;;;;;;;;;;2106002;28;44252;-63
2021/01/17 05:07:50;;;;;;;;;;;;;;;;;;2105821;28;45445;-64
2021/01/17 05:09:03;;;;;;;;;;;;;;;;;;2106498;28;44383;-63
2021/01/17 05:10:10;;;;;;;;;;;;;;;;;;2106317;28;44283;-64
2021/01/17 05:11:20;;;;;;;;;;;;;;;;;;2106970;28;47024;-64
2021/01/17 05:12:25;;;;;;;;;;;;;;;;;;2106453;28;46078;-64
2021/01/17 05:13:32;;;;;;;;;;;;;;;;;;2106355;28;45986;-64
2021/01/17 05:14:43;;;;;;;;;;;;;;;;;;2105704;28;48050;-64
2021/01/17 05:15:45;;;;;;;;;;;;;;;;;;2105874;28;44532;-63
2021/01/17 05:16:47;;;;;;;;;;;;;;;;;;2106450;28;47017;-63
2021/01/17 05:17:48;;;;;;;;;;;;;;;;;;2105454;28;45713;-62
2021/01/17 05:18:52;;;;;;;;;;;;;;;;;;2105706;28;43896;-63
2021/01/17 05:19:53;;;;;;;;;;;;;;;;;;2105220;28;46048;-62
2021/01/17 05:20:56;;;;;;;;;;;;;;;;;;2105569;28;43446;-62
2021/01/17 05:21:59;;;;;;;;;;;;;;;;;;2105433;28;46101;-63
2021/01/17 05:23:00;;;;;;;;;;;;;;;;;;2105503;28;46115;-63
2021/01/17 05:24:02;;;;;;;;;;;;;;;;;;2105374;28;46933;-63
2021/01/17 05:25:07;;;;;;;;;;;;;;;;;;2105663;28;44544;-63
2021/01/17 05:26:08;;;;;;;;;;;;;;;;;;2106211;28;43585;-63
2021/01/17 05:27:09;;;;;;;;;;;;;;;;;;2105694;28;44845;-63
2021/01/17 05:28:10;;;;;;;;;;;;;;;;;;2105445;28;44744;-63
2021/01/17 05:29:16;;;;;;;;;;;;;;;;;;2105884;28;43807;-63
2021/01/17 05:30:18;;;;;;;;;;;;;;;;;;2106111;28;46237;-63
2021/01/17 05:31:23;;;;;;;;;;;;;;;;;;2106049;28;44388;-63
2021/01/17 05:32:24;;;;;;;;;;;;;;;;;;2106304;28;44127;-63
2021/01/17 05:33:27;;;;;;;;;;;;;;;;;;2107936;28;44166;-63
2021/01/17 05:34:28;;;;;;;;;;;;;;;;;;2107934;28;44710;-63
2021/01/17 05:35:29;;;;;;;;;;;;;;;;;;2107134;28;45654;-62
2021/01/17 05:36:30;;;;;;;;;;;;;;;;;;2106897;28;44444;-63
2021/01/17 05:37:31;;;;;;;;;;;;;;;;;;2106955;28;44404;-62
2021/01/17 05:38:32;;;;;;;;;;;;;;;;;;2107425;28;42605;-62
2021/01/17 05:39:55;;;;;;;;;;;;;;;;;;2107382;28;43100;-62
2021/01/17 05:40:56;;;;;;;;;;;;;;;;;;2106715;28;45621;-62
2021/01/17 05:42:09;;;;;;;;;;;;;;;;;;2107388;28;43013;-62
2021/01/17 05:43:10;;;;;;;;;;;;;;;;;;2107488;28;44380;-63
2021/01/17 05:44:12;;;;;;;;;;;;;;;;;;2106323;28;43662;-63
2021/01/17 05:45:17;;;;;;;;;;;;;;;;;;2107337;28;42989;-62
2021/01/17 05:46:18;;;;;;;;;;;;;;;;;;2107526;28;42373;-62
2021/01/17 05:47:20;;;;;;;;;;;;;;;;;;2106781;28;43474;-62
2021/01/17 05:48:21;;;;;;;;;;;;;;;;;;2107063;28;42734;-63
2021/01/17 05:49:24;;;;;;;;;;;;;;;;;;2106929;28;43789;-63
2021/01/17 05:50:26;;;;;;;;;;;;;;;;;;2107399;28;43043;-63
2021/01/17 05:51:27;;;;;;;;;;;;;;;;;;2107055;28;44203;-63
2021/01/17 05:52:29;;;;;;;;;;;;;;;;;;2107752;28;42933;-63
2021/01/17 05:53:30;;;;;;;;;;;;;;;;;;2106912;28;44203;-63
2021/01/17 05:54:31;;;;;;;;;;;;;;;;;;2106992;28;43231;-63
2021/01/17 05:55:38;;;;;;;;;;;;;;;;;;2107416;28;42050;-63
2021/01/17 05:56:40;;;;;;;;;;;;;;;;;;2108060;28;42833;-63
2021/01/17 05:57:41;;;;;;;;;;;;;;;;;;2106721;28;47263;-63
2021/01/17 05:58:43;;;;;;;;;;;;;;;;;;2107028;28;45332;-63
2021/01/17 05:59:44;;;;;;;;;;;;;;;;;;2107088;28;43801;-63
2021/01/17 06:00:45;;;;;;;;;;;;;;;;;;2107017;28;44260;-63
2021/01/17 06:01:47;;;;;;;;;;;;;;;;;;2106592;28;44106;-62
2021/01/17 06:02:53;;;;;;;;;;;;;;;;;;2107637;28;43087;-62
2021/01/17 06:03:55;;;;;;;;;;;;;;;;;;2106906;28;44392;-62
2021/01/17 06:04:58;;;;;;;;;;;;;;;;;;2107069;28;44272;-62
2021/01/17 06:06:00;;;;;;;;;;;;;;;;;;2106734;28;44757;-63
2021/01/17 06:07:01;;;;;;;;;;;;;;;;;;2107204;28;43792;-63
2021/01/17 06:08:03;;;;;;;;;;;;;;;;;;2107180;28;46536;-62
2021/01/17 06:09:04;;;;;;;;;;;;;;;;;;2107457;28;45561;-62
2021/01/17 06:10:06;;;;;;;;;;;;;;;;;;2107292;28;44120;-62
2021/01/17 06:11:11;;;;;;;;;;;;;;;;;;2107609;28;44376;-62
2021/01/17 06:12:13;;;;;;;;;;;;;;;;;;2106484;28;45677;-62
2021/01/17 06:13:24;;;;;;;;;;;;;;;;;;2107076;28;42155;-62
2021/01/17 06:14:25;;;;;;;;;;;;;;;;;;2107425;28;45012;-62
2021/01/17 06:15:31;;;;;;;;;;;;;;;;;;2107454;28;44285;-62
2021/01/17 06:16:39;;;;;;;;;;;;;;;;;;2107793;27;41599;-62
2021/01/17 06:17:46;;;;;;;;;;;;;;;;;;2115400;28;42590;-62
2021/01/17 06:18:55;;;;;;;;;;;;;;;;;;2115243;28;45719;-62
2021/01/17 06:19:57;;;;;;;;;;;;;;;;;;2115350;27;44547;-62
2021/01/17 06:20:58;;;;;;;;;;;;;;;;;;2114866;28;45657;-63
2021/01/17 06:22:00;;;;;;;;;;;;;;;;;;2115310;28;44533;-62
2021/01/17 06:23:03;;;;;;;;;;;;;;;;;;2115584;27;46861;-63
2021/01/17 06:24:06;;;;;;;;;;;;;;;;;;2115938;27;43363;-63
2021/01/17 06:25:07;;;;;;;;;;;;;;;;;;2115087;28;46121;-63
2021/01/17 06:26:10;;;;;;;;;;;;;;;;;;2106876;28;45865;-62
2021/01/17 06:27:12;;;;;;;;;;;;;;;;;;2115122;28;43675;-62
2021/01/17 06:28:14;;;;;;;;;;;;;;;;;;2115211;28;45381;-62
2021/01/17 06:29:15;;;;;;;;;;;;;;;;;;2114852;28;43528;-62
2021/01/17 06:30:18;;;;;;;;;;;;;;;;;;2115055;28;44820;-63
2021/01/17 06:31:27;;;;;;;;;;;;;;;;;;2115029;28;44844;-62
2021/01/17 06:32:37;;;;;;;;;;;;;;;;;;2115112;28;44511;-62
2021/01/17 06:33:39;;;;;;;;;;;;;;;;;;2108075;28;46740;-63
2021/01/17 06:34:44;;;;;;;;;;;;;;;;;;2106833;28;45803;-62
2021/01/17 06:35:46;;;;;;;;;;;;;;;;;;2115124;28;46535;-63
2021/01/17 06:36:47;;;;;;;;;;;;;;;;;;2115048;28;44866;-63
2021/01/17 06:37:48;;;;;;;;;;;;;;;;;;2115156;28;44682;-63
2021/01/17 06:38:50;;;;;;;;;;;;;;;;;;2113995;28;44855;-63
2021/01/17 06:39:51;;;;;;;;;;;;;;;;;;2114573;28;44621;-63
2021/01/17 06:40:58;;;;;;;;;;;;;;;;;;2115567;27;45966;-63
2021/01/17 06:42:08;;;;;;;;;;;;;;;;;;2115309;28;46017;-63
2021/01/17 06:43:10;;;;;;;;;;;;;;;;;;2115169;28;44557;-63
2021/01/17 06:44:12;;;;;;;;;;;;;;;;;;2114819;27;43819;-63
2021/01/17 06:45:16;;;;;;;;;;;;;;;;;;2115557;28;44175;-63
2021/01/17 06:46:18;;;;;;;;;;;;;;;;;;2115614;28;44423;-63
2021/01/17 06:47:20;;;;;;;;;;;;;;;;;;2114937;28;41802;-63
2021/01/17 06:48:22;;;;;;;;;;;;;;;;;;2115044;28;42457;-63
2021/01/17 06:49:24;;;;;;;;;;;;;;;;;;2115119;27;44404;-63
2021/01/17 06:50:25;;;;;;;;;;;;;;;;;;2115625;28;44566;-64
2021/01/17 06:51:26;;;;;;;;;;;;;;;;;;2114806;28;42673;-64
2021/01/17 06:52:27;;;;;;;;;;;;;;;;;;2115026;28;41802;-64
2021/01/17 06:53:27;;;;;;;;;;;;;;;;;;2115016;28;42190;-63
2021/01/17 06:54:33;;;;;;;;;;;;;;;;;;2115441;27;44189;-63
2021/01/17 06:55:34;;;;;;;;;;;;;;;;;;2115387;27;42927;-63
2021/01/17 06:56:36;;;;;;;;;;;;;;;;;;2115599;28;42052;-63
2021/01/17 06:57:37;;;;;;;;;;;;;;;;;;2115484;28;43140;-64
2021/01/17 06:58:39;;;;;;;;;;;;;;;;;;2115573;28;42177;-63
2021/01/17 06:59:43;;;;;;;;;;;;;;;;;;2114841;28;43452;-63
2021/01/17 07:00:45;;;;;;;;;;;;;;;;;;2115053;28;43970;-63
2021/01/17 07:01:53;;;;;;;;;;;;;;;;;;2114962;28;42840;-64
2021/01/17 07:02:57;;;;;;;;;;;;;;;;;;2114872;28;44097;-64
2021/01/17 07:04:11;;;;;;;;;;;;;;;;;;2115185;28;43090;-64
2021/01/17 07:05:30;;;;;;;;;;;;;;;;;;2115404;27;45366;-64
2021/01/17 07:06:50;;;;;;;;;;;;;;;;;;2115406;27;44262;-64
2021/01/17 07:08:09;;;;;;;;;;;;;;;;;;2114993;28;42611;-64
2021/01/17 07:09:24;;;;;;;;;;;;;;;;;;2106314;28;45591;-64